Terminal Aerodrome Forecast
Issued by NWS

Home | Current Version | Previous Version | Text Only | Print | Product List | Glossary On
Versions: 1 2 3 4 5 6 7 8 9 10 11 12 13 14 15 16 17
000
FTUS43 KOAX 291814 AAA
TAFCDR
TAF AMD
KCDR 291814Z 2918/3018 20014G19KT 6SM FU SKC
     FM300000 18011KT 6SM FU SKC
     FM300500 18012G26KT P6SM SKC
     FM300800 20012KT P6SM SKC=

USA.gov is the U.S. government's official web portal to all federal, state and local government web resources and services.